Time;durP1;ratioP1;P1;durP2;ratioP2;P2;SDS_P1;SDS_P2;PMS_P1;PMS_P2;Temp;Humidity;BMP_temperature;BMP_pressure;BME280_temperature;BME280_humidity;BME280_pressure;Samples;Min_cycle;Max_cycle;Signal;HPM_P1;HPM_P2
2023/09/18 00:00:27;;;;;;;;;;;;;;;-144.99;100.00;52321.72;4994970;28;19999;-62
2023/09/18 00:02:55;;;;;;;;;;;;;;;-144.99;100.00;52321.72;4995974;28;20013;-67
2023/09/18 00:05:22;;;;;;;;;;;;;;;-144.99;100.00;52325.81;4994756;28;19963;-66
2023/09/18 00:07:48;;;;;;;;;;;;;;;-144.99;100.00;52329.88;4997802;28;20284;-63
2023/09/18 00:10:15;;;;;;;;;;;;;;;-144.99;100.00;52354.34;4996371;28;20284;-63
2023/09/18 00:12:41;;;;;;;;;;;;;;;-144.99;100.00;52338.03;4997628;28;19942;-65
2023/09/18 00:15:09;;;;;;;;;;;;;;;-144.99;100.00;52325.81;4996360;28;20009;-65
2023/09/18 00:17:36;;;;;;;;;;;;;;;-144.99;100.00;52362.50;4998288;28;20314;-66
2023/09/18 00:20:05;;;;;;;;;;;;;;;-144.99;100.00;52315.59;5003027;28;20508;-65
2023/09/18 00:22:31;;;;;;;;;;;;;;;-144.99;100.00;52364.53;4994289;28;19946;-66
2023/09/18 00:24:58;;;;;;;;;;;;;;;-144.99;100.00;52346.19;4996020;28;20000;-66
2023/09/18 00:27:24;;;;;;;;;;;;;;;-144.99;100.00;52329.88;4994849;28;20040;-62
2023/09/18 00:29:51;;;;;;;;;;;;;;;-144.99;100.00;52333.94;4996421;28;20422;-63
2023/09/18 00:32:17;;;;;;;;;;;;;;;-144.99;100.00;52305.41;4994588;28;19943;-72
2023/09/18 00:34:44;;;;;;;;;;;;;;;-144.99;100.00;52305.41;4999279;28;20060;-71
2023/09/18 00:37:12;;;;;;;;;;;;;;;-144.99;100.00;52305.41;4998691;28;19946;-71
2023/09/18 00:39:38;;;;;;;;;;;;;;;-144.99;100.00;52309.50;4998894;28;19962;-71
2023/09/18 00:42:05;;;;;;;;;;;;;;;-144.99;100.00;52333.94;5000820;28;20017;-72
2023/09/18 00:44:31;;;;;;;;;;;;;;;-144.99;100.00;52342.09;5000767;28;21559;-71
2023/09/18 00:46:58;;;;;;;;;;;;;;;-144.99;100.00;52305.41;5009546;28;20024;-67
2023/09/18 00:49:25;;;;;;;;;;;;;;;-144.99;100.00;52307.47;5008832;28;20297;-67
2023/09/18 00:51:52;;;;;;;;;;;;;;;-144.99;100.00;52317.66;5007090;28;20036;-68
2023/09/18 00:54:20;;;;;;;;;;;;;;;-144.99;100.00;52321.72;5003486;28;20443;-68
2023/09/18 00:56:47;;;;;;;;;;;;;;;-144.99;100.00;52325.81;4999194;28;19953;-67
2023/09/18 00:59:14;;;;;;;;;;;;;;;-144.99;100.00;52268.72;5006656;28;20029;-68
2023/09/18 01:01:41;;;;;;;;;;;;;;;-144.99;100.00;52325.81;5003970;28;20396;-68
2023/09/18 01:04:08;;;;;;;;;;;;;;;-144.99;100.00;52338.03;5003207;28;20039;-68
2023/09/18 01:06:36;;;;;;;;;;;;;;;-144.99;100.00;52354.34;5003378;28;20377;-68
2023/09/18 01:09:11;;;;;;;;;;;;;;;-144.99;100.00;52323.75;4999963;28;20901;-67
2023/09/18 01:11:44;;;;;;;;;;;;;;;-144.99;100.00;52370.63;4998961;28;19981;-68
2023/09/18 01:14:14;;;;;;;;;;;;;;;-144.99;100.00;52297.25;4999457;28;20048;-68
2023/09/18 01:16:45;;;;;;;;;;;;;;;-144.99;100.00;52370.63;5003672;28;20372;-68
2023/09/18 01:19:12;;;;;;;;;;;;;;;-144.99;100.00;52313.56;5005005;28;20487;-60
2023/09/18 01:21:38;;;;;;;;;;;;;;;-144.99;100.00;52317.66;4998003;28;20057;-60
2023/09/18 01:24:07;;;;;;;;;;;;;;;-144.99;100.00;52338.03;4998480;28;20043;-63
2023/09/18 01:26:33;;;;;;;;;;;;;;;-144.99;100.00;52346.19;4997740;28;19956;-67
2023/09/18 01:28:59;;;;;;;;;;;;;;;-144.99;100.00;52362.50;4997776;28;20353;-62
2023/09/18 01:31:27;;;;;;;;;;;;;;;-144.99;100.00;52331.91;4998467;28;20061;-63
2023/09/18 01:33:53;;;;;;;;;;;;;;;-144.99;100.00;52321.72;4997941;28;19949;-61
2023/09/18 01:36:20;;;;;;;;;;;;;;;-144.99;100.00;52342.09;5002787;28;20401;-66
2023/09/18 01:38:47;;;;;;;;;;;;;;;-144.99;100.00;52333.94;5009872;28;20055;-65
2023/09/18 01:41:15;;;;;;;;;;;;;;;-144.99;100.00;52325.81;5008552;28;19956;-66
2023/09/18 01:43:42;;;;;;;;;;;;;;;-144.99;100.00;52307.47;5005290;28;19952;-66
2023/09/18 01:46:09;;;;;;;;;;;;;;;-144.99;100.00;52333.94;5004203;28;20369;-65
2023/09/18 01:48:35;;;;;;;;;;;;;;;-144.99;100.00;52305.41;4996323;28;20482;-64
2023/09/18 01:51:02;;;;;;;;;;;;;;;-144.99;100.00;52354.34;4655049;28;10000484;-66
2023/09/18 01:53:28;;;;;;;;;;;;;;;-144.99;100.00;52354.34;4999313;28;19970;-65
2023/09/18 01:55:55;;;;;;;;;;;;;;;-144.99;100.00;52342.09;4998840;28;19952;-68
2023/09/18 01:58:23;;;;;;;;;;;;;;;-144.99;100.00;52313.56;4997217;28;20037;-68
2023/09/18 02:00:49;;;;;;;;;;;;;;;-144.99;100.00;52329.88;5000320;28;20293;-65
2023/09/18 02:03:18;;;;;;;;;;;;;;;-144.99;100.00;52301.34;5008182;28;20011;-67
2023/09/18 02:05:44;;;;;;;;;;;;;;;-144.99;100.00;52321.72;5004638;28;19945;-66
2023/09/18 02:08:11;;;;;;;;;;;;;;;-144.99;100.00;52321.72;5004163;28;19969;-66
2023/09/18 02:10:37;;;;;;;;;;;;;;;-144.99;100.00;52329.88;5001803;28;20043;-63
2023/09/18 02:13:04;;;;;;;;;;;;;;;-144.99;100.00;52358.41;5002364;28;19978;-62
2023/09/18 02:15:32;;;;;;;;;;;;;;;-144.99;100.00;52338.03;5007871;28;20430;-61
2023/09/18 02:17:58;;;;;;;;;;;;;;;-144.99;100.00;52350.25;5007013;28;19951;-61
2023/09/18 02:20:25;;;;;;;;;;;;;;;-144.99;100.00;52317.66;5002344;28;19961;-62
2023/09/18 02:22:51;;;;;;;;;;;;;;;-144.99;100.00;52327.84;5005942;28;19980;-61
2023/09/18 02:25:18;;;;;;;;;;;;;;;-144.99;100.00;52356.38;5008598;28;19980;-62
2023/09/18 02:27:44;;;;;;;;;;;;;;;-144.99;100.00;52313.56;5003155;28;19976;-61
2023/09/18 02:30:11;;;;;;;;;;;;;;;-144.99;100.00;52305.41;5010034;28;19973;-61
2023/09/18 02:32:39;;;;;;;;;;;;;;;-144.99;100.00;52362.50;5009025;28;19993;-60
2023/09/18 02:35:07;;;;;;;;;;;;;;;-144.99;100.00;52354.34;5004573;28;19994;-61
2023/09/18 02:37:33;;;;;;;;;;;;;;;-144.99;100.00;52374.72;5010172;28;19998;-61
2023/09/18 02:40:00;;;;;;;;;;;;;;;-144.99;100.00;52368.59;5010016;28;20458;-61
2023/09/18 02:42:26;;;;;;;;;;;;;;;-144.99;100.00;52370.63;5006574;28;20399;-61
2023/09/18 02:44:52;;;;;;;;;;;;;;;-144.99;100.00;52329.88;5005907;28;19985;-61
2023/09/18 02:47:19;;;;;;;;;;;;;;;-144.99;100.00;52348.22;5009633;28;20011;-60
2023/09/18 02:49:47;;;;;;;;;;;;;;;-144.99;100.00;52352.28;5006299;28;20061;-60
2023/09/18 02:52:13;;;;;;;;;;;;;;;-144.99;100.00;52333.94;5001894;28;20562;-60
2023/09/18 02:54:40;;;;;;;;;;;;;;;-144.99;100.00;52362.50;5001589;28;19991;-66
2023/09/18 02:57:06;;;;;;;;;;;;;;;-144.99;100.00;52358.41;5000322;28;19943;-66
2023/09/18 02:59:33;;;;;;;;;;;;;;;-144.99;100.00;52325.81;4999600;28;20052;-66
2023/09/18 03:02:00;;;;;;;;;;;;;;;-144.99;100.00;52317.66;5001707;28;19939;-66
2023/09/18 03:04:26;;;;;;;;;;;;;;;-144.99;100.00;52338.03;4998974;28;19941;-63
2023/09/18 03:06:54;;;;;;;;;;;;;;;-144.99;100.00;52333.94;4998324;28;19950;-63
2023/09/18 03:09:21;;;;;;;;;;;;;;;-144.99;100.00;52358.41;4999438;28;19973;-62
2023/09/18 03:11:47;;;;;;;;;;;;;;;-144.99;100.00;52321.72;4998690;28;20049;-63
2023/09/18 03:14:14;;;;;;;;;;;;;;;-144.99;100.00;52370.63;4999903;28;19948;-61
2023/09/18 03:16:40;;;;;;;;;;;;;;;-144.99;100.00;52315.59;4999330;28;19955;-64
2023/09/18 03:19:07;;;;;;;;;;;;;;;-144.99;100.00;52336.00;5000067;28;20117;-63
2023/09/18 03:21:35;;;;;;;;;;;;;;;-144.99;100.00;52321.72;4999703;28;20306;-63
2023/09/18 03:24:04;;;;;;;;;;;;;;;-144.99;100.00;52346.19;4999065;28;19958;-63
2023/09/18 03:26:30;;;;;;;;;;;;;;;-144.99;100.00;52333.94;4998214;28;20008;-63
2023/09/18 03:28:57;;;;;;;;;;;;;;;-144.99;100.00;52358.41;4999607;28;20088;-63
2023/09/18 03:31:23;;;;;;;;;;;;;;;-144.99;100.00;52366.56;4998936;28;20053;-65
2023/09/18 03:33:49;;;;;;;;;;;;;;;-144.99;100.00;52329.88;5002916;28;19948;-65
2023/09/18 03:36:16;;;;;;;;;;;;;;;-144.99;100.00;52354.34;4998622;28;20045;-65
2023/09/18 03:38:42;;;;;;;;;;;;;;;-144.99;100.00;52362.50;5005280;28;20053;-65
2023/09/18 03:41:10;;;;;;;;;;;;;;;-144.99;100.00;52350.25;5009314;28;19956;-61
2023/09/18 03:43:37;;;;;;;;;;;;;;;-144.99;100.00;52366.56;5008822;28;19947;-61
2023/09/18 03:46:06;;;;;;;;;;;;;;;-144.99;100.00;52370.63;5008894;28;19947;-61
2023/09/18 03:48:37;;;;;;;;;;;;;;;-144.99;100.00;52374.72;5008135;28;20372;-61
2023/09/18 03:51:03;;;;;;;;;;;;;;;-144.99;100.00;52358.41;5008092;28;20040;-61
2023/09/18 03:53:30;;;;;;;;;;;;;;;-144.99;100.00;52362.50;5005429;28;19945;-61
2023/09/18 03:55:56;;;;;;;;;;;;;;;-144.99;100.00;52342.09;4999514;28;19981;-61
2023/09/18 03:58:24;;;;;;;;;;;;;;;-144.99;100.00;52362.50;5005633;28;20455;-61
2023/09/18 04:00:51;;;;;;;;;;;;;;;-144.99;100.00;52354.34;5005925;28;19975;-59
2023/09/18 04:03:17;;;;;;;;;;;;;;;-144.99;100.00;52346.19;5007364;28;19984;-61
2023/09/18 04:05:44;;;;;;;;;;;;;;;-144.99;100.00;52338.03;5004924;28;20001;-61
2023/09/18 04:08:11;;;;;;;;;;;;;;;-144.99;100.00;52325.81;5007989;28;20426;-62
2023/09/18 04:10:37;;;;;;;;;;;;;;;-144.99;100.00;52342.09;5003902;28;19967;-62
2023/09/18 04:13:04;;;;;;;;;;;;;;;-144.99;100.00;52338.03;4999775;28;19943;-62
2023/09/18 04:15:32;;;;;;;;;;;;;;;-144.99;100.00;52313.56;5008024;28;19948;-63
2023/09/18 04:17:58;;;;;;;;;;;;;;;-144.99;100.00;52338.03;4999451;28;19978;-63
2023/09/18 04:20:25;;;;;;;;;;;;;;;-144.99;100.00;52338.03;5009308;28;20093;-63
2023/09/18 04:23:12;;;;;;;;;;;;;;;-144.99;100.00;52370.63;5004841;28;19996;-63
2023/09/18 04:25:39;;;;;;;;;;;;;;;-144.99;100.00;52356.38;4995941;28;19975;-62
2023/09/18 04:28:05;;;;;;;;;;;;;;;-144.99;100.00;52382.88;4994295;28;19952;-65
2023/09/18 04:30:34;;;;;;;;;;;;;;;-144.99;100.00;52370.63;4996211;28;19963;-65
2023/09/18 04:33:01;;;;;;;;;;;;;;;-144.99;100.00;52344.16;4994401;28;20026;-65
2023/09/18 04:35:27;;;;;;;;;;;;;;;-144.99;100.00;52338.03;4994665;28;20404;-66
2023/09/18 04:37:56;;;;;;;;;;;;;;;-144.99;100.00;52384.91;4993991;28;19944;-66
2023/09/18 04:40:23;;;;;;;;;;;;;;;-144.99;100.00;52352.28;4994205;28;19961;-66
2023/09/18 04:42:50;;;;;;;;;;;;;;;-144.99;100.00;52331.91;4994062;28;20027;-66
2023/09/18 04:45:17;;;;;;;;;;;;;;;-144.99;100.00;52360.44;4994404;28;19952;-67
2023/09/18 04:47:44;;;;;;;;;;;;;;;-144.99;100.00;52350.25;4995053;28;20041;-67
2023/09/18 04:50:11;;;;;;;;;;;;;;;-144.99;100.00;52342.09;4978801;28;20056;-67
2023/09/18 04:52:40;;;;;;;;;;;;;;;-144.99;100.00;52358.41;4994839;28;19986;-67
2023/09/18 04:55:07;;;;;;;;;;;;;;;-144.99;100.00;52309.50;4994813;28;19988;-67
2023/09/18 04:57:33;;;;;;;;;;;;;;;-144.99;100.00;52333.94;4991263;28;19950;-67
2023/09/18 05:00:00;;;;;;;;;;;;;;;-144.99;100.00;52362.50;4993640;28;20546;-64
2023/09/18 05:02:26;;;;;;;;;;;;;;;-144.99;100.00;52364.53;4995244;28;19949;-63
2023/09/18 05:04:56;;;;;;;;;;;;;;;-144.99;100.00;52348.22;5002155;28;20064;-65
2023/09/18 05:07:23;;;;;;;;;;;;;;;-144.99;100.00;52354.34;5002127;28;19948;-64
2023/09/18 05:09:49;;;;;;;;;;;;;;;-144.99;100.00;52346.19;5000683;28;19967;-65
2023/09/18 05:12:16;;;;;;;;;;;;;;;-144.99;100.00;52360.44;4999065;28;19978;-68
2023/09/18 05:14:42;;;;;;;;;;;;;;;-144.99;100.00;52350.25;4995969;28;20045;-67
2023/09/18 05:17:11;;;;;;;;;;;;;;;-144.99;100.00;52350.25;4995702;28;19951;-67
2023/09/18 05:19:38;;;;;;;;;;;;;;;-144.99;100.00;52364.53;4994636;28;20406;-67
2023/09/18 05:22:05;;;;;;;;;;;;;;;-144.99;100.00;52333.94;4996614;28;20043;-67
2023/09/18 05:24:32;;;;;;;;;;;;;;;-144.99;100.00;52325.81;4999297;28;19968;-70
2023/09/18 05:26:59;;;;;;;;;;;;;;;-144.99;100.00;52358.41;5012075;28;19940;-71
2023/09/18 05:29:25;;;;;;;;;;;;;;;-144.99;100.00;52321.72;5012963;28;20049;-72
2023/09/18 05:31:51;;;;;;;;;;;;;;;-144.99;100.00;52336.00;5013819;28;20053;-70
2023/09/18 05:34:18;;;;;;;;;;;;;;;-144.99;100.00;52350.25;5013253;28;19949;-70
2023/09/18 05:36:45;;;;;;;;;;;;;;;-144.99;100.00;52356.38;4993374;28;19940;-72
2023/09/18 05:39:12;;;;;;;;;;;;;;;-144.99;100.00;52342.09;5010452;28;20064;-71
2023/09/18 05:41:39;;;;;;;;;;;;;;;-144.99;100.00;52350.25;5002095;28;20007;-75
2023/09/18 05:44:07;;;;;;;;;;;;;;;-144.99;100.00;52352.28;5008689;28;19951;-69
2023/09/18 05:46:34;;;;;;;;;;;;;;;-144.99;100.00;52354.34;5008714;28;19953;-74
2023/09/18 05:49:01;;;;;;;;;;;;;;;-144.99;100.00;52301.34;5008024;28;20033;-71
2023/09/18 05:51:27;;;;;;;;;;;;;;;-144.99;100.00;52342.09;5007579;28;19998;-75
2023/09/18 05:53:54;;;;;;;;;;;;;;;-144.99;100.00;52350.25;5000010;28;20357;-74
2023/09/18 05:56:23;;;;;;;;;;;;;;;-144.99;100.00;52325.81;5008829;28;20391;-72
2023/09/18 05:58:50;;;;;;;;;;;;;;;-144.99;100.00;52350.25;5008666;28;20310;-72
2023/09/18 06:01:16;;;;;;;;;;;;;;;-144.99;100.00;52378.78;5007634;28;19948;-72
2023/09/18 06:03:43;;;;;;;;;;;;;;;-144.99;100.00;52340.06;5008276;28;20409;-75
2023/09/18 06:06:10;;;;;;;;;;;;;;;-144.99;100.00;52333.94;5008248;28;19946;-71
2023/09/18 06:08:36;;;;;;;;;;;;;;;-144.99;100.00;52293.19;4989638;28;20068;-69
2023/09/18 06:11:03;;;;;;;;;;;;;;;-144.99;100.00;52329.88;5008754;28;20007;-74
2023/09/18 06:13:30;;;;;;;;;;;;;;;-144.99;100.00;52342.09;5000236;28;20262;-74
2023/09/18 06:15:57;;;;;;;;;;;;;;;-144.99;100.00;52346.19;5008787;28;19945;-73
2023/09/18 06:18:24;;;;;;;;;;;;;;;-144.99;100.00;52309.50;5007930;28;19957;-73
2023/09/18 06:20:51;;;;;;;;;;;;;;;-144.99;100.00;52338.03;5008163;28;20054;-71
2023/09/18 06:23:17;;;;;;;;;;;;;;;-144.99;100.00;52276.88;5007285;28;20080;-73
2023/09/18 06:25:44;;;;;;;;;;;;;;;-144.99;100.00;52287.06;4660738;28;9999645;-70
2023/09/18 06:28:10;;;;;;;;;;;;;;;-144.99;100.00;52325.81;4999879;28;20161;-73
2023/09/18 06:30:38;;;;;;;;;;;;;;;-144.99;100.00;52333.94;5006736;28;19991;-69
2023/09/18 06:33:04;;;;;;;;;;;;;;;-144.99;100.00;52354.34;5002277;28;20058;-72
2023/09/18 06:35:31;;;;;;;;;;;;;;;-144.99;100.00;52315.59;5009401;28;20043;-70
2023/09/18 06:37:58;;;;;;;;;;;;;;;-144.99;100.00;52325.81;5003863;28;19987;-71
2023/09/18 06:40:25;;;;;;;;;;;;;;;-144.99;99.43;52297.25;5006711;28;20214;-71
2023/09/18 06:42:52;;;;;;;;;;;;;;;-144.99;99.27;52338.03;5006605;28;20092;-73
2023/09/18 06:45:18;;;;;;;;;;;;;;;-144.99;99.58;52354.34;4997492;28;20071;-73
2023/09/18 06:47:46;;;;;;;;;;;;;;;-144.99;100.00;52325.81;5008673;28;20037;-71
2023/09/18 06:50:19;;;;;;;;;;;;;;;-144.99;100.00;52309.50;4886512;28;10000570;-73
2023/09/18 06:52:47;;;;;;;;;;;;;;;-144.99;100.00;52313.56;5003054;28;19962;-74
2023/09/18 06:55:13;;;;;;;;;;;;;;;-144.99;100.00;52325.81;5002515;28;19973;-78
2023/09/18 06:57:41;;;;;;;;;;;;;;;-144.99;100.00;52317.66;4999800;28;19944;-75
2023/09/18 07:00:08;;;;;;;;;;;;;;;-144.99;99.76;52317.66;5007286;28;19994;-71
2023/09/18 07:02:34;;;;;;;;;;;;;;;-144.99;99.71;52313.56;5006193;28;20487;-72
2023/09/18 07:05:02;;;;;;;;;;;;;;;-144.99;99.61;52348.22;4999859;28;20055;-71
2023/09/18 07:07:29;;;;;;;;;;;;;;;-144.99;99.64;52305.41;5005703;28;20043;-71
2023/09/18 07:09:55;;;;;;;;;;;;;;;-144.99;99.55;52321.72;5005875;28;20156;-72
2023/09/18 07:12:22;;;;;;;;;;;;;;;-144.99;99.53;52309.50;4999244;28;20015;-75
2023/09/18 07:14:49;;;;;;;;;;;;;;;-144.99;99.29;52327.84;5005249;28;19973;-71
2023/09/18 07:17:16;;;;;;;;;;;;;;;-144.99;98.70;52303.38;5007646;28;20037;-72
2023/09/18 07:19:42;;;;;;;;;;;;;;;-144.99;98.65;52309.50;4998301;28;19961;-72
2023/09/18 07:22:10;;;;;;;;;;;;;;;-144.99;98.71;52305.41;5006279;28;19983;-70
2023/09/18 07:24:40;;;;;;;;;;;;;;;-144.99;98.05;52285.03;5004540;28;20031;-72
2023/09/18 07:27:07;;;;;;;;;;;;;;;-144.99;97.66;52317.66;5007239;28;20008;-71
2023/09/18 07:29:34;;;;;;;;;;;;;;;-144.99;97.93;52297.25;5006170;28;19970;-77
2023/09/18 07:32:01;;;;;;;;;;;;;;;-144.99;97.34;52313.56;5006306;28;20325;-74
2023/09/18 07:34:28;;;;;;;;;;;;;;;-144.99;97.10;52301.34;5003231;28;19955;-76
2023/09/18 07:36:56;;;;;;;;;;;;;;;-144.99;96.92;52313.56;5005747;28;19948;-73
2023/09/18 07:39:24;;;;;;;;;;;;;;;-144.99;97.13;52305.41;5002875;28;19992;-72
2023/09/18 07:41:52;;;;;;;;;;;;;;;-144.99;96.96;52315.59;4991242;28;19953;-72
2023/09/18 07:44:19;;;;;;;;;;;;;;;-144.99;96.88;52285.03;5001477;28;20367;-71
2023/09/18 07:46:46;;;;;;;;;;;;;;;-144.99;96.63;52258.53;4996012;28;20046;-75
2023/09/18 07:49:13;;;;;;;;;;;;;;;-144.99;97.04;52307.47;5004511;28;20401;-73
2023/09/18 07:51:39;;;;;;;;;;;;;;;-144.99;96.94;52301.34;5004993;28;20069;-71
2023/09/18 07:54:07;;;;;;;;;;;;;;;-144.99;97.25;52317.66;5004454;28;20001;-74
2023/09/18 07:56:36;;;;;;;;;;;;;;;-144.99;97.44;52338.03;5002723;28;20420;-71
2023/09/18 07:59:02;;;;;;;;;;;;;;;-144.99;97.17;52297.25;4990898;28;20300;-74
2023/09/18 08:01:31;;;;;;;;;;;;;;;-144.99;97.36;52348.22;5007160;28;20026;-72
2023/09/18 08:03:59;;;;;;;;;;;;;;;-144.99;97.17;52313.56;5001270;28;20379;-74
2023/09/18 08:06:26;;;;;;;;;;;;;;;-144.99;97.34;52305.41;5005257;28;20042;-73
2023/09/18 08:08:53;;;;;;;;;;;;;;;-144.99;97.32;52297.25;5001541;28;20003;-74
2023/09/18 08:11:19;;;;;;;;;;;;;;;-144.99;97.25;52299.31;5005538;28;20112;-72
2023/09/18 08:13:47;;;;;;;;;;;;;;;-144.99;97.22;52305.41;5002308;28;20332;-72
2023/09/18 08:16:14;;;;;;;;;;;;;;;-144.99;97.05;52321.72;4988104;28;20024;-77
2023/09/18 08:18:41;;;;;;;;;;;;;;;-144.99;97.42;52293.19;5005344;28;20236;-75
2023/09/18 08:21:08;;;;;;;;;;;;;;;-144.99;97.27;52321.72;5005853;28;19945;-70
2023/09/18 08:23:36;;;;;;;;;;;;;;;-144.99;97.25;52260.56;5005418;28;19990;-72
2023/09/18 08:26:03;;;;;;;;;;;;;;;-144.99;97.25;52348.22;5004140;28;20146;-72
2023/09/18 08:28:30;;;;;;;;;;;;;;;-144.99;97.27;52315.59;5007497;28;19949;-72
2023/09/18 08:30:59;;;;;;;;;;;;;;;-144.99;97.39;52331.91;5005559;28;20022;-75
2023/09/18 08:33:25;;;;;;;;;;;;;;;-144.99;97.79;52311.53;5004135;28;19977;-73
2023/09/18 08:35:52;;;;;;;;;;;;;;;-144.99;97.54;52313.56;5003625;28;19939;-72
2023/09/18 08:38:18;;;;;;;;;;;;;;;-144.99;97.30;52303.38;5004851;28;19947;-74
2023/09/18 08:40:45;;;;;;;;;;;;;;;-144.99;97.72;52331.91;5005359;28;20015;-71
2023/09/18 08:43:15;;;;;;;;;;;;;;;-144.99;98.45;52321.72;5004754;28;19992;-75
2023/09/18 08:45:44;;;;;;;;;;;;;;;-144.99;99.68;52315.59;5001955;28;20357;-71
2023/09/18 08:48:12;;;;;;;;;;;;;;;-144.99;100.00;52321.72;5003892;28;20070;-77
2023/09/18 08:50:39;;;;;;;;;;;;;;;-144.99;99.88;52313.56;5004843;28;19965;-73
2023/09/18 08:53:06;;;;;;;;;;;;;;;-144.99;99.54;52276.88;5006021;28;20015;-76
2023/09/18 08:55:34;;;;;;;;;;;;;;;-144.99;99.81;52317.66;5005158;28;19950;-74
2023/09/18 08:58:00;;;;;;;;;;;;;;;-144.99;100.00;52338.03;5005073;28;19995;-75
2023/09/18 09:00:27;;;;;;;;;;;;;;;-144.99;100.00;52305.41;5006955;28;20091;-75
2023/09/18 09:02:54;;;;;;;;;;;;;;;-144.99;100.00;52319.69;5003676;28;19944;-72
2023/09/18 09:05:22;;;;;;;;;;;;;;;-144.99;100.00;52329.88;5006555;28;19959;-71
2023/09/18 09:07:49;;;;;;;;;;;;;;;-144.99;100.00;52293.19;5006018;28;19971;-68
2023/09/18 09:10:16;;;;;;;;;;;;;;;-144.99;100.00;52278.91;5009390;28;20007;-70
2023/09/18 09:12:50;;;;;;;;;;;;;;;-144.99;100.00;52309.50;5009381;28;19962;-72
2023/09/18 09:15:16;;;;;;;;;;;;;;;-144.99;100.00;52331.91;5011497;28;19996;-71
2023/09/18 09:17:44;;;;;;;;;;;;;;;-144.99;100.00;52297.25;5007678;28;20045;-72
2023/09/18 09:20:11;;;;;;;;;;;;;;;-144.99;100.00;52280.97;5009153;28;19966;-75
2023/09/18 09:22:40;;;;;;;;;;;;;;;-144.99;100.00;52301.34;5011047;28;20044;-75
2023/09/18 09:25:22;;;;;;;;;;;;;;;-144.99;100.00;52309.50;5009120;28;19948;-74
2023/09/18 09:27:49;;;;;;;;;;;;;;;-144.99;100.00;52268.72;5006165;28;20358;-72
2023/09/18 09:30:19;;;;;;;;;;;;;;;-144.99;100.00;52299.31;5005321;28;20059;-74
2023/09/18 09:32:48;;;;;;;;;;;;;;;-144.99;99.36;52301.34;5007632;28;19984;-71
2023/09/18 09:35:19;;;;;;;;;;;;;;;-144.99;98.72;52236.13;4993813;28;19958;-72
2023/09/18 09:37:47;;;;;;;;;;;;;;;-144.99;98.10;52278.91;5005554;28;19947;-73
2023/09/18 09:40:14;;;;;;;;;;;;;;;-144.99;97.76;52303.38;5000472;28;20059;-81
2023/09/18 09:42:41;;;;;;;;;;;;;;;-144.99;97.77;52313.56;5007089;28;20578;-74
2023/09/18 09:45:12;;;;;;;;;;;;;;;-144.99;97.93;52264.66;5007629;28;19948;-77
2023/09/18 09:47:39;;;;;;;;;;;;;;;-144.99;98.35;52283.00;5007381;28;19956;-73
2023/09/18 09:50:10;;;;;;;;;;;;;;;-144.99;98.06;52297.25;5006786;28;19971;-72
2023/09/18 09:52:37;;;;;;;;;;;;;;;-144.99;98.31;52289.13;5008173;28;19963;-76
2023/09/18 09:55:18;;;;;;;;;;;;;;;-144.99;98.85;52278.91;5004035;28;20427;-73
2023/09/18 09:57:47;;;;;;;;;;;;;;;-144.99;98.49;52280.97;4999732;28;19940;-72
2023/09/18 10:00:26;;;;;;;;;;;;;;;-144.99;98.67;52285.03;5006171;28;20000;-77
2023/09/18 10:02:54;;;;;;;;;;;;;;;-144.99;98.81;52276.88;5001182;28;19950;-72
2023/09/18 10:05:20;;;;;;;;;;;;;;;-144.99;98.68;52305.41;5004538;28;19953;-73
2023/09/18 10:07:47;;;;;;;;;;;;;;;-144.99;98.67;52270.78;5001142;28;19944;-72
2023/09/18 10:10:15;;;;;;;;;;;;;;;-144.99;98.32;52266.69;5003886;28;20371;-78
2023/09/18 10:12:42;;;;;;;;;;;;;;;-144.99;98.23;52260.56;5003720;28;20009;-76
2023/09/18 10:15:11;;;;;;;;;;;;;;;-144.99;98.16;52280.97;5008587;28;20056;-72
2023/09/18 10:17:44;;;;;;;;;;;;;;;-144.99;97.92;52303.38;5005657;28;20020;-74
2023/09/18 10:20:19;;;;;;;;;;;;;;;-144.99;97.86;52289.13;5005507;28;20014;-72
2023/09/18 10:22:47;;;;;;;;;;;;;;;-144.99;97.70;52252.44;5007939;28;20143;-72
2023/09/18 10:25:19;;;;;;;;;;;;;;;-144.99;97.60;52268.72;5000290;28;19963;-73
2023/09/18 10:27:49;;;;;;;;;;;;;;;-144.99;97.55;52266.69;5004954;28;19947;-77
2023/09/18 10:30:18;;;;;;;;;;;;;;;-144.99;97.60;52315.59;5004600;28;20352;-72
2023/09/18 10:32:45;;;;;;;;;;;;;;;-144.99;97.48;52248.34;5006592;28;20020;-73
2023/09/18 10:35:12;;;;;;;;;;;;;;;-144.99;96.58;52236.13;5009090;28;19978;-73
2023/09/18 10:37:39;;;;;;;;;;;;;;;-144.99;96.00;52225.94;5006867;28;19978;-74
2023/09/18 10:40:07;;;;;;;;;;;;;;;-144.99;95.89;52258.53;5008833;28;20011;-75
2023/09/18 10:42:35;;;;;;;;;;;;;;;-144.99;94.75;52248.34;5008216;28;20076;-74
2023/09/18 10:45:04;;;;;;;;;;;;;;;-144.99;93.78;52223.88;5000235;28;19955;-75
2023/09/18 10:47:31;;;;;;;;;;;;;;;-144.99;94.25;52280.97;5007567;28;19958;-77
2023/09/18 10:49:58;;;;;;;;;;;;;;;-144.99;94.61;52256.50;5007715;28;20051;-74
2023/09/18 10:52:24;;;;;;;;;;;;;;;-144.99;94.94;52254.47;5009098;28;20687;-76
2023/09/18 10:54:51;;;;;;;;;;;;;;;-144.99;95.02;52240.19;4662117;28;9999770;-75
2023/09/18 10:57:18;;;;;;;;;;;;;;;-144.99;95.20;52250.38;5008409;28;20033;-73
2023/09/18 10:59:46;;;;;;;;;;;;;;;-144.99;95.08;52244.28;4990352;28;19963;-77
2023/09/18 11:02:14;;;;;;;;;;;;;;;-144.99;95.41;52256.50;5008133;28;20003;-73
2023/09/18 11:04:42;;;;;;;;;;;;;;;-144.99;94.99;52260.56;4998008;28;19957;-72
2023/09/18 11:07:09;;;;;;;;;;;;;;;-144.99;94.76;52256.50;5006953;28;19947;-75
2023/09/18 11:09:43;;;;;;;;;;;;;;;-144.99;93.68;52199.44;5007155;28;19966;-75
2023/09/18 11:12:11;;;;;;;;;;;;;;;-144.99;91.85;52199.44;5007553;28;20485;-73
2023/09/18 11:14:49;;;;;;;;;;;;;;;-144.99;90.40;52248.34;5004471;28;19962;-72
2023/09/18 11:17:34;;;;;;;;;;;;;;;-144.99;90.25;52256.50;5004567;28;20054;-73
2023/09/18 11:20:06;;;;;;;;;;;;;;;-144.99;91.14;52260.56;5003977;28;20005;-75
2023/09/18 11:22:32;;;;;;;;;;;;;;;-144.99;92.95;52260.56;5007275;28;19948;-75
2023/09/18 11:25:14;;;;;;;;;;;;;;;-144.99;93.94;52227.97;5008859;28;19948;-74
2023/09/18 11:27:54;;;;;;;;;;;;;;;-144.99;94.06;52248.34;5000961;28;20432;-73
2023/09/18 11:30:22;;;;;;;;;;;;;;;-144.99;94.18;52268.72;5009366;28;19994;-74
2023/09/18 11:32:48;;;;;;;;;;;;;;;-144.99;94.75;52252.44;4998725;28;19976;-72
2023/09/18 11:35:17;;;;;;;;;;;;;;;-144.99;95.54;52291.16;5008831;28;19953;-78
2023/09/18 11:37:43;;;;;;;;;;;;;;;-144.99;96.28;52256.50;5007512;28;19949;-73
2023/09/18 11:40:25;;;;;;;;;;;;;;;-144.99;96.77;52283.00;5006714;28;20021;-73
2023/09/18 11:43:07;;;;;;;;;;;;;;;-144.99;97.51;52301.34;4995181;28;19947;-74
2023/09/18 11:45:35;;;;;;;;;;;;;;;-144.99;97.76;52232.03;5007975;28;20333;-74
2023/09/18 11:48:01;;;;;;;;;;;;;;;-144.99;97.69;52276.88;5008427;28;19983;-73
2023/09/18 11:50:30;;;;;;;;;;;;;;;-144.99;98.10;52250.38;5003635;28;20052;-72
2023/09/18 11:52:58;;;;;;;;;;;;;;;-144.99;98.15;52276.88;5008501;28;20015;-74
2023/09/18 11:55:24;;;;;;;;;;;;;;;-144.99;98.05;52280.97;5010763;28;20047;-73
2023/09/18 11:57:56;;;;;;;;;;;;;;;-144.99;98.03;52283.00;5002412;28;20030;-76
2023/09/18 12:00:25;;;;;;;;;;;;;;;-144.99;98.82;52260.56;5010868;28;19981;-72
2023/09/18 12:02:52;;;;;;;;;;;;;;;-144.99;98.90;52297.25;5008849;28;19991;-72
2023/09/18 12:05:19;;;;;;;;;;;;;;;-144.99;98.71;52268.72;5009404;28;20382;-74
2023/09/18 12:07:46;;;;;;;;;;;;;;;-144.99;98.99;52260.56;5009982;28;19939;-77
2023/09/18 12:10:13;;;;;;;;;;;;;;;-144.99;98.39;52285.03;5009018;28;20033;-76
2023/09/18 12:12:40;;;;;;;;;;;;;;;-144.99;98.37;52240.19;5007911;28;19940;-73
2023/09/18 12:15:07;;;;;;;;;;;;;;;-144.99;97.72;52280.97;5002615;28;20050;-73
2023/09/18 12:17:33;;;;;;;;;;;;;;;-144.99;96.23;52199.44;5008293;28;19984;-78
2023/09/18 12:20:04;;;;;;;;;;;;;;;-144.99;94.60;52240.19;5008747;28;19968;-72
2023/09/18 12:22:31;;;;;;;;;;;;;;;-144.99;94.51;52189.25;5008702;28;20005;-72